La Porte City, Iowa
Current Conditions -  °F | °C
As of 7:55 AM on Wednesday 26 Nov 2014 (Local Time) from KVTI Reporting Station
Clear Clear  
Wind Chill: 12°   Ceiling: Unl
Heat Index: 24°   Visibility: 10mi
Dew Point: 20°   Wind: 13mph
Humidity: 86%   Direction: 110°ESE
Pressure: 30"   Gusts: NA
Location:  42.31°N, 92.19°W
Report Text: KVTI 261355Z AUTO 11011KT 10SM CLR M04/M06 A3000 RMK AO2 T10451065
Loading
Personal Weather Stations






























Interactive Weather Map New forecast layout! Learn more

10-Day Weather Forecast

Advertisements
Track Severe Weather on mobile